createdAt,value
2022-09-10T00:02:12.337Z,96.30
2022-09-10T00:04:39.265Z,96.40
2022-09-10T00:07:06.153Z,96.40
2022-09-10T00:09:33.038Z,96.30
2022-09-10T00:11:59.899Z,96.40
2022-09-10T00:14:26.787Z,96.50
2022-09-10T00:16:54.829Z,96.70
2022-09-10T00:19:22.152Z,96.80
2022-09-10T00:21:50.670Z,96.90
2022-09-10T00:24:17.613Z,96.90
2022-09-10T00:26:45.667Z,96.70
2022-09-10T00:29:18.387Z,97.00
2022-09-10T00:31:45.445Z,96.80
2022-09-10T00:34:14.323Z,96.80
2022-09-10T00:36:43.902Z,96.70
2022-09-10T00:39:15.085Z,96.90
2022-09-10T00:41:44.632Z,96.90
2022-09-10T00:44:43.691Z,96.70
2022-09-10T00:47:22.367Z,96.70
2022-09-10T00:50:20.863Z,96.40
2022-09-10T00:52:49.565Z,96.20
2022-09-10T00:55:17.634Z,96.10
2022-09-10T00:57:47.661Z,96.00
2022-09-10T01:00:16.035Z,96.00
2022-09-10T01:02:43.254Z,96.00
2022-09-10T01:05:12.035Z,95.90
2022-09-10T01:07:39.897Z,96.00
2022-09-10T01:10:18.057Z,95.90
2022-09-10T01:13:03.415Z,95.90
2022-09-10T01:15:53.046Z,95.80
2022-09-10T01:19:02.351Z,95.70
2022-09-10T01:21:57.361Z,96.00
2022-09-10T01:25:00.685Z,96.10
2022-09-10T01:27:44.865Z,95.90
2022-09-10T01:30:25.056Z,95.80
2022-09-10T01:33:23.398Z,95.80
2022-09-10T01:36:01.778Z,95.70
2022-09-10T01:38:35.710Z,95.50
2022-09-10T01:41:04.572Z,95.40
2022-09-10T01:43:37.582Z,95.30
2022-09-10T01:46:21.458Z,95.50
2022-09-10T01:49:07.761Z,95.50
2022-09-10T01:51:40.394Z,95.50
2022-09-10T01:54:50.818Z,95.30
2022-09-10T01:57:52.928Z,95.50
2022-09-10T02:00:22.219Z,95.30
2022-09-10T02:03:01.691Z,95.20
2022-09-10T02:05:35.250Z,95.20
2022-09-10T02:08:13.943Z,95.10
2022-09-10T02:11:06.807Z,95.90
2022-09-10T02:13:36.830Z,95.70
2022-09-10T02:16:31.251Z,95.50
2022-09-10T02:19:00.683Z,95.60
2022-09-10T02:21:27.785Z,95.50
2022-09-10T02:24:05.966Z,95.40
2022-09-10T02:26:40.288Z,95.50
2022-09-10T02:29:08.716Z,95.70
2022-09-10T02:31:36.403Z,95.50
2022-09-10T02:34:03.580Z,95.50
2022-09-10T02:36:31.989Z,95.40
2022-09-10T02:39:00.433Z,95.30
2022-09-10T02:41:30.131Z,95.40
2022-09-10T02:43:57.551Z,95.20
2022-09-10T02:46:24.773Z,95.30
2022-09-10T02:48:55.212Z,95.30
2022-09-10T02:51:24.429Z,95.20
2022-09-10T02:53:51.823Z,95.20
2022-09-10T02:56:23.697Z,95.10
2022-09-10T02:58:51.062Z,95.10
2022-09-10T03:01:21.165Z,95.00
2022-09-10T03:03:58.162Z,94.90
2022-09-10T03:06:26.477Z,95.00
2022-09-10T03:08:57.654Z,95.10
2022-09-10T03:11:27.473Z,95.10
2022-09-10T03:13:55.785Z,95.10
2022-09-10T03:16:24.364Z,95.20
2022-09-10T03:18:52.258Z,95.20
2022-09-10T03:21:22.315Z,95.20
2022-09-10T03:23:51.245Z,95.20
2022-09-10T03:26:25.929Z,95.10
2022-09-10T03:28:54.077Z,95.40
2022-09-10T03:31:23.656Z,95.00
2022-09-10T03:33:51.449Z,95.00
2022-09-10T03:36:20.885Z,95.00
2022-09-10T03:38:49.408Z,95.20
2022-09-10T03:41:17.252Z,95.20
2022-09-10T03:43:44.970Z,95.20
2022-09-10T03:46:12.159Z,95.20
2022-09-10T03:48:43.605Z,95.20
2022-09-10T03:51:11.107Z,95.20
2022-09-10T03:53:39.239Z,95.10
2022-09-10T03:56:08.394Z,95.00
2022-09-10T03:58:35.877Z,95.00
2022-09-10T04:01:03.889Z,95.20
2022-09-10T04:03:33.367Z,95.50
2022-09-10T04:06:00.285Z,95.50
2022-09-10T04:08:27.225Z,95.60
2022-09-10T04:10:55.149Z,95.70
2022-09-10T04:13:23.048Z,95.70
2022-09-10T04:15:50.040Z,95.90
2022-09-10T04:18:17.125Z,95.90
2022-09-10T04:20:48.131Z,95.90
2022-09-10T04:23:16.430Z,96.00
2022-09-10T04:25:46.585Z,95.90
2022-09-10T04:28:13.672Z,95.90
2022-09-10T04:30:40.629Z,95.90
2022-09-10T04:33:09.469Z,95.80
2022-09-10T04:35:36.374Z,95.80
2022-09-10T04:38:07.150Z,95.80
2022-09-10T04:40:38.102Z,95.70
2022-09-10T04:43:05.031Z,95.80
2022-09-10T04:45:35.125Z,95.60
2022-09-10T04:48:06.722Z,95.90
2022-09-10T04:50:34.499Z,95.50
2022-09-10T04:53:12.256Z,95.50
2022-09-10T04:55:43.008Z,95.50
2022-09-10T04:58:10.652Z,95.60
2022-09-10T05:00:39.370Z,95.60
2022-09-10T05:03:07.187Z,95.60
2022-09-10T05:05:34.862Z,95.60
2022-09-10T05:08:08.140Z,95.70
2022-09-10T05:10:38.276Z,95.70
2022-09-10T05:13:07.264Z,95.80
2022-09-10T05:15:35.717Z,95.90
2022-09-10T05:18:04.538Z,96.00
2022-09-10T05:20:35.703Z,96.20
2022-09-10T05:23:02.616Z,96.30
2022-09-10T05:25:29.617Z,96.40
2022-09-10T05:27:58.374Z,96.50
2022-09-10T05:30:25.246Z,96.50
2022-09-10T05:32:53.271Z,96.70
2022-09-10T05:35:20.421Z,96.70
2022-09-10T05:37:48.639Z,96.70
2022-09-10T05:40:15.947Z,96.70
2022-09-10T05:42:44.234Z,96.80
2022-09-10T05:45:11.307Z,96.90
2022-09-10T05:47:38.266Z,97.00
2022-09-10T05:50:07.288Z,97.10
2022-09-10T05:52:35.127Z,97.30
2022-09-10T05:55:06.796Z,97.30
2022-09-10T05:57:33.680Z,97.20
2022-09-10T06:00:02.019Z,97.10
2022-09-10T06:02:30.546Z,97.00
2022-09-10T06:04:58.572Z,96.80
2022-09-10T06:07:28.212Z,96.80
2022-09-10T06:09:55.851Z,96.90
2022-09-10T06:12:35.410Z,96.90
2022-09-10T06:15:03.659Z,96.90
2022-09-10T06:17:30.591Z,96.90
2022-09-10T06:19:58.016Z,96.90
2022-09-10T06:22:25.075Z,96.90
2022-09-10T06:24:53.730Z,96.80
2022-09-10T06:27:23.227Z,96.70
2022-09-10T06:29:51.276Z,96.70
2022-09-10T06:32:18.259Z,96.50
2022-09-10T06:34:46.543Z,96.50
2022-09-10T06:37:13.440Z,96.40
2022-09-10T06:39:40.970Z,96.30
2022-09-10T06:42:08.131Z,96.20
2022-09-10T06:44:54.800Z,96.20
2022-09-10T06:48:25.456Z,96.00
2022-09-10T06:50:21.443Z,95.90
2022-09-10T06:52:50.220Z,95.80
2022-09-10T06:55:20.652Z,95.60
2022-09-10T06:57:47.617Z,95.40
2022-09-10T07:00:17.451Z,95.30
2022-09-10T07:02:50.452Z,95.30
2022-09-10T07:05:17.754Z,95.20
2022-09-10T07:07:46.356Z,95.30
2022-09-10T07:10:14.406Z,95.10
2022-09-10T07:12:41.913Z,94.90
2022-09-10T07:15:09.638Z,94.90
2022-09-10T07:17:37.015Z,95.00
2022-09-10T07:20:04.631Z,95.00
2022-09-10T07:22:43.712Z,95.00
2022-09-10T07:25:12.817Z,95.00
2022-09-10T07:27:57.957Z,94.90
2022-09-10T07:30:25.640Z,94.80
2022-09-10T07:32:52.804Z,94.60
2022-09-10T07:35:25.467Z,94.50
2022-09-10T07:37:54.264Z,94.50
2022-09-10T07:40:23.403Z,94.40
2022-09-10T07:42:52.450Z,94.70
2022-09-10T07:45:19.760Z,94.20
2022-09-10T07:47:48.618Z,94.10
2022-09-10T07:50:16.483Z,94.10
2022-09-10T07:52:44.475Z,94.10
2022-09-10T07:55:11.517Z,93.90
2022-09-10T07:57:40.535Z,93.90
2022-09-10T08:00:16.705Z,93.90
2022-09-10T08:02:46.976Z,93.90
2022-09-10T08:05:18.552Z,93.80
2022-09-10T08:07:46.608Z,93.60
2022-09-10T08:10:13.553Z,93.40
2022-09-10T08:12:41.975Z,93.30
2022-09-10T08:15:10.809Z,93.40
2022-09-10T08:17:40.051Z,93.30
2022-09-10T08:20:09.850Z,93.30
2022-09-10T08:22:38.633Z,93.20
2022-09-10T08:25:06.343Z,93.10
2022-09-10T08:27:35.134Z,93.10
2022-09-10T08:30:05.668Z,92.90
2022-09-10T08:32:35.834Z,93.00
2022-09-10T08:35:04.945Z,92.50
2022-09-10T08:37:33.378Z,92.50
2022-09-10T08:40:00.364Z,92.40
2022-09-10T08:42:39.946Z,92.40
2022-09-10T08:45:17.424Z,92.20
2022-09-10T08:47:57.150Z,92.00
2022-09-10T08:50:49.707Z,92.10
2022-09-10T08:53:44.232Z,92.10
2022-09-10T08:56:21.494Z,91.80
2022-09-10T08:59:00.023Z,92.10
2022-09-10T09:01:45.768Z,91.70
2022-09-10T09:04:39.651Z,91.40
2022-09-10T09:07:15.812Z,91.30
2022-09-10T09:09:51.469Z,91.20
2022-09-10T09:12:36.177Z,91.10
2022-09-10T09:15:25.560Z,90.90
2022-09-10T09:18:15.460Z,91.20
2022-09-10T09:20:52.560Z,90.80
2022-09-10T09:23:23.619Z,91.30
2022-09-10T09:26:04.689Z,90.80
2022-09-10T09:28:49.409Z,90.50
2022-09-10T09:31:26.280Z,90.30
2022-09-10T09:34:05.891Z,90.20
2022-09-10T09:36:42.433Z,90.10
2022-09-10T09:39:42.642Z,90.00
2022-09-10T09:42:24.779Z,89.90
2022-09-10T09:45:32.425Z,89.60
2022-09-10T09:47:59.785Z,89.50
2022-09-10T09:50:30.032Z,88.20
2022-09-10T09:52:57.278Z,88.30
2022-09-10T09:55:38.872Z,88.60
2022-09-10T09:58:26.833Z,87.80
2022-09-10T10:01:09.740Z,85.80
2022-09-10T10:03:58.558Z,82.80
2022-09-10T10:06:34.671Z,83.40
2022-09-10T10:09:22.927Z,83.50
2022-09-10T10:11:58.293Z,83.60
2022-09-10T10:14:41.530Z,83.70
2022-09-10T10:17:30.220Z,83.50
2022-09-10T10:20:14.400Z,83.70
2022-09-10T10:22:44.069Z,83.60
2022-09-10T10:25:38.364Z,84.60
2022-09-10T10:28:31.871Z,83.10
2022-09-10T10:31:01.084Z,82.90
2022-09-10T10:33:31.515Z,83.20
2022-09-10T10:36:19.631Z,83.70
2022-09-10T10:39:47.605Z,81.80
2022-09-10T10:42:45.767Z,82.30
2022-09-10T10:45:45.963Z,81.30
2022-09-10T10:48:33.903Z,80.00
2022-09-10T10:51:15.040Z,80.10
2022-09-10T10:54:29.509Z,80.30
2022-09-10T10:57:30.495Z,80.70
2022-09-10T11:00:12.878Z,81.00
2022-09-10T11:03:15.924Z,80.90
2022-09-10T11:05:48.302Z,81.40
2022-09-10T11:08:29.996Z,82.10
2022-09-10T11:11:13.789Z,82.10
2022-09-10T11:14:25.208Z,81.20
2022-09-10T11:17:05.628Z,81.70
2022-09-10T11:19:43.093Z,81.50
2022-09-10T11:22:22.872Z,82.00
2022-09-10T11:25:00.504Z,81.80
2022-09-10T11:27:37.648Z,82.10
2022-09-10T11:30:10.563Z,81.50
2022-09-10T11:33:05.567Z,81.90
2022-09-10T11:35:44.607Z,81.60
2022-09-10T11:38:36.812Z,81.80
2022-09-10T11:41:22.306Z,81.20
2022-09-10T11:44:15.472Z,80.20
2022-09-10T11:46:58.204Z,79.90
2022-09-10T11:49:39.336Z,80.00
2022-09-10T11:52:06.217Z,79.80
2022-09-10T11:54:35.736Z,80.30
2022-09-10T11:57:40.244Z,80.70
2022-09-10T12:00:18.394Z,80.90
2022-09-10T12:03:30.736Z,81.40
2022-09-10T12:06:22.269Z,81.70
2022-09-10T12:09:09.340Z,80.90
2022-09-10T12:12:09.076Z,78.30
2022-09-10T12:14:39.942Z,78.90
2022-09-10T12:17:29.946Z,78.40
2022-09-10T12:19:59.001Z,78.00
2022-09-10T12:22:31.769Z,78.80
2022-09-10T12:25:28.338Z,79.60
2022-09-10T12:28:01.526Z,79.50
2022-09-10T12:30:29.126Z,78.40
2022-09-10T12:33:01.870Z,77.90
2022-09-10T12:35:45.976Z,78.20
2022-09-10T12:39:09.179Z,78.30
2022-09-10T12:41:36.108Z,77.00
2022-09-10T12:44:34.407Z,77.90
2022-09-10T12:47:16.469Z,78.10
2022-09-10T12:49:49.506Z,77.00
2022-09-10T12:52:40.732Z,76.60
2022-09-10T12:55:48.910Z,76.50
2022-09-10T12:58:58.961Z,75.30
2022-09-10T13:01:46.376Z,75.40
2022-09-10T13:04:37.201Z,74.70
2022-09-10T13:07:25.118Z,75.30
2022-09-10T13:10:14.943Z,74.60
2022-09-10T13:12:45.052Z,73.90
2022-09-10T13:15:24.053Z,73.50
2022-09-10T13:17:51.406Z,73.60
2022-09-10T13:20:21.207Z,74.70
2022-09-10T13:23:10.108Z,75.40
2022-09-10T13:25:45.881Z,75.90
2022-09-10T13:28:31.335Z,75.90
2022-09-10T13:31:09.103Z,75.90
2022-09-10T13:34:14.100Z,75.70
2022-09-10T13:37:17.415Z,76.40
2022-09-10T13:40:08.851Z,76.60
2022-09-10T13:43:07.645Z,76.30
2022-09-10T13:45:42.052Z,76.20
2022-09-10T13:48:27.514Z,76.30
2022-09-10T13:51:11.162Z,76.80
2022-09-10T13:53:43.818Z,76.00
2022-09-10T13:56:21.564Z,76.50
2022-09-10T13:58:51.597Z,77.10
2022-09-10T14:01:18.610Z,77.10
2022-09-10T14:03:45.559Z,77.20
2022-09-10T14:06:18.296Z,77.20
2022-09-10T14:09:04.762Z,77.00
2022-09-10T14:11:41.304Z,76.70
2022-09-10T14:14:19.234Z,77.30
2022-09-10T14:16:52.623Z,77.40
2022-09-10T14:19:26.384Z,78.00
2022-09-10T14:21:55.719Z,77.20
2022-09-10T14:24:59.764Z,77.20
2022-09-10T14:27:30.989Z,77.10
2022-09-10T14:30:25.924Z,78.40
2022-09-10T14:32:53.219Z,78.90
2022-09-10T14:35:37.113Z,78.70
2022-09-10T14:38:26.470Z,79.00
2022-09-10T14:41:08.465Z,77.80
2022-09-10T14:43:38.976Z,78.10
2022-09-10T14:46:08.259Z,77.40
2022-09-10T14:48:39.452Z,76.70
2022-09-10T14:51:21.946Z,76.50
2022-09-10T14:53:56.984Z,76.70
2022-09-10T14:56:37.983Z,77.10
2022-09-10T14:59:36.339Z,77.60
2022-09-10T15:02:15.530Z,78.30
2022-09-10T15:04:42.453Z,78.80
2022-09-10T15:07:10.140Z,79.00
2022-09-10T15:09:37.012Z,79.30
2022-09-10T15:12:24.336Z,79.50
2022-09-10T15:14:52.088Z,79.70
2022-09-10T15:17:19.688Z,79.70
2022-09-10T15:19:47.242Z,79.80
2022-09-10T15:22:23.669Z,79.60
2022-09-10T15:25:08.987Z,79.20
2022-09-10T15:27:36.335Z,79.40
2022-09-10T15:30:03.479Z,79.10
2022-09-10T15:32:30.765Z,78.60
2022-09-10T15:34:57.646Z,78.30
2022-09-10T15:37:24.578Z,78.50
2022-09-10T15:39:51.669Z,78.90
2022-09-10T15:42:18.659Z,78.90
2022-09-10T15:44:45.532Z,78.80
2022-09-10T15:47:12.415Z,79.00
2022-09-10T15:49:39.319Z,79.10
2022-09-10T15:52:06.224Z,79.20
2022-09-10T15:54:33.895Z,79.30
2022-09-10T15:57:01.204Z,78.90
2022-09-10T15:59:28.526Z,78.70
2022-09-10T16:01:55.459Z,79.20
2022-09-10T16:04:22.947Z,79.80
2022-09-10T16:06:49.871Z,80.10
2022-09-10T16:09:16.943Z,81.00
2022-09-10T16:11:44.457Z,81.40
2022-09-10T16:14:14.679Z,81.90
2022-09-10T16:16:41.883Z,81.90
2022-09-10T16:19:12.059Z,81.90
2022-09-10T16:21:39.296Z,82.40
2022-09-10T16:24:06.962Z,83.10
2022-09-10T16:26:41.605Z,84.30
2022-09-10T16:29:15.907Z,86.00
2022-09-10T16:31:45.489Z,84.90
2022-09-10T16:34:19.047Z,85.10
2022-09-10T16:36:51.508Z,85.90
2022-09-10T16:39:19.867Z,86.50
2022-09-10T16:41:49.088Z,86.80
2022-09-10T16:44:17.779Z,87.60
2022-09-10T16:46:46.552Z,88.00
2022-09-10T16:49:15.064Z,88.40
2022-09-10T16:51:44.196Z,88.80
2022-09-10T16:54:13.538Z,89.10
2022-09-10T16:56:43.933Z,89.10
2022-09-10T16:59:15.734Z,89.20
2022-09-10T17:01:48.407Z,89.10
2022-09-10T17:04:20.646Z,88.60
2022-09-10T17:06:50.780Z,88.60
2022-09-10T17:09:17.963Z,88.70
2022-09-10T17:11:44.852Z,88.70
2022-09-10T17:14:12.368Z,89.00
2022-09-10T17:16:41.564Z,88.60
2022-09-10T17:19:23.231Z,88.60
2022-09-10T17:21:53.437Z,89.20
2022-09-10T17:24:23.401Z,89.50
2022-09-10T17:26:51.055Z,89.80
2022-09-10T17:29:22.237Z,90.60
2022-09-10T17:31:52.029Z,90.60
2022-09-10T17:34:21.341Z,90.60
2022-09-10T17:36:49.081Z,90.60
2022-09-10T17:39:16.890Z,90.80
2022-09-10T17:41:44.065Z,91.10
2022-09-10T17:44:12.148Z,91.20
2022-09-10T17:46:39.443Z,91.10
2022-09-10T17:49:06.688Z,91.20
2022-09-10T17:51:34.962Z,91.50
2022-09-10T17:54:03.270Z,91.50
2022-09-10T17:56:31.300Z,91.50
2022-09-10T17:59:01.675Z,91.50
2022-09-10T18:01:38.828Z,91.70
2022-09-10T18:04:12.660Z,92.30
2022-09-10T18:06:40.747Z,92.00
2022-09-10T18:09:08.660Z,92.00
2022-09-10T18:11:39.528Z,92.20
2022-09-10T18:14:07.209Z,92.40
2022-09-10T18:16:36.285Z,92.30
2022-09-10T18:19:13.728Z,92.40
2022-09-10T18:21:42.049Z,92.50
2022-09-10T18:24:19.022Z,92.70
2022-09-10T18:26:48.288Z,92.80
2022-09-10T18:29:27.740Z,92.90
2022-09-10T18:31:57.935Z,93.00
2022-09-10T18:34:28.603Z,92.90
2022-09-10T18:36:58.570Z,93.30
2022-09-10T18:39:27.629Z,93.20
2022-09-10T18:41:55.086Z,93.20
2022-09-10T18:44:27.205Z,93.30
2022-09-10T18:46:54.466Z,93.60
2022-09-10T18:49:24.379Z,93.60
2022-09-10T18:51:52.408Z,93.40
2022-09-10T18:54:21.760Z,93.50
2022-09-10T18:56:49.585Z,93.50
2022-09-10T18:59:20.221Z,93.60
2022-09-10T19:01:49.337Z,93.60
2022-09-10T19:04:20.128Z,93.70
2022-09-10T19:06:48.529Z,93.70
2022-09-10T19:09:19.546Z,93.60
2022-09-10T19:11:49.609Z,93.60
2022-09-10T19:14:29.866Z,93.60
2022-09-10T19:16:58.637Z,93.60
2022-09-10T19:19:31.730Z,93.40
2022-09-10T19:22:03.317Z,93.40
2022-09-10T19:24:53.362Z,93.60
2022-09-10T19:27:17.658Z,93.60
2022-09-10T19:29:47.157Z,93.60
2022-09-10T19:32:15.140Z,93.70
2022-09-10T19:34:42.691Z,93.70
2022-09-10T19:37:09.770Z,93.70
2022-09-10T19:39:36.739Z,93.80
2022-09-10T19:42:04.178Z,93.80
2022-09-10T19:44:31.047Z,93.90
2022-09-10T19:46:58.674Z,93.90
2022-09-10T19:49:25.590Z,94.00
2022-09-10T19:51:52.506Z,94.00
2022-09-10T19:54:19.422Z,93.80
2022-09-10T19:56:46.309Z,93.80
2022-09-10T19:59:14.465Z,93.90
2022-09-10T20:01:43.617Z,93.80
2022-09-10T20:04:12.624Z,93.90
2022-09-10T20:06:40.298Z,93.90
2022-09-10T20:09:09.791Z,93.80
2022-09-10T20:11:37.186Z,93.90
2022-09-10T20:14:10.729Z,93.80
2022-09-10T20:16:42.260Z,93.80
2022-09-10T20:19:11.565Z,93.80
2022-09-10T20:21:38.526Z,94.00
2022-09-10T20:24:07.285Z,93.90
2022-09-10T20:26:43.893Z,94.30
2022-09-10T20:29:17.834Z,94.10
2022-09-10T20:31:46.213Z,94.20
2022-09-10T20:34:19.723Z,94.20
2022-09-10T20:36:50.252Z,94.30
2022-09-10T20:39:19.774Z,94.30
2022-09-10T20:41:46.997Z,94.30
2022-09-10T20:44:16.508Z,94.30
2022-09-10T20:46:44.498Z,94.30
2022-09-10T20:49:13.810Z,94.40
2022-09-10T20:51:41.364Z,94.50
2022-09-10T20:54:13.907Z,94.60
2022-09-10T20:56:41.424Z,94.70
2022-09-10T20:59:08.295Z,94.70
2022-09-10T21:01:35.223Z,94.70
2022-09-10T21:04:04.103Z,94.80
2022-09-10T21:06:33.258Z,94.80
2022-09-10T21:09:02.063Z,94.80
2022-09-10T21:11:32.418Z,94.90
2022-09-10T21:14:01.904Z,94.80
2022-09-10T21:16:37.981Z,94.80
2022-09-10T21:19:09.396Z,95.00
2022-09-10T21:21:39.330Z,95.00
2022-09-10T21:24:16.640Z,95.10
2022-09-10T21:26:44.396Z,95.30
2022-09-10T21:29:17.768Z,95.20
2022-09-10T21:31:45.563Z,95.20
2022-09-10T21:34:13.679Z,95.20
2022-09-10T21:36:41.882Z,95.30
2022-09-10T21:39:14.368Z,95.30
2022-09-10T21:41:47.609Z,95.30
2022-09-10T21:44:18.394Z,95.40
2022-09-10T21:46:46.677Z,95.40
2022-09-10T21:49:14.321Z,95.50
2022-09-10T21:51:41.912Z,95.60
2022-09-10T21:54:20.435Z,95.50
2022-09-10T21:56:48.688Z,95.60
2022-09-10T21:59:16.121Z,95.60
2022-09-10T22:01:45.410Z,95.60
2022-09-10T22:04:13.727Z,95.60
2022-09-10T22:06:40.858Z,95.70
2022-09-10T22:09:14.859Z,95.80
2022-09-10T22:11:50.157Z,95.90
2022-09-10T22:14:20.883Z,96.00
2022-09-10T22:16:48.251Z,96.10
2022-09-10T22:19:18.895Z,96.20
2022-09-10T22:21:47.080Z,96.30
2022-09-10T22:24:19.226Z,96.40
2022-09-10T22:26:47.341Z,96.60
2022-09-10T22:29:19.997Z,96.50
2022-09-10T22:31:47.918Z,96.60
2022-09-10T22:34:16.536Z,96.70
2022-09-10T22:36:46.137Z,96.70
2022-09-10T22:39:21.288Z,96.70
2022-09-10T22:41:50.078Z,96.70
2022-09-10T22:44:18.044Z,96.80
2022-09-10T22:46:44.967Z,96.90
2022-09-10T22:49:11.900Z,96.80
2022-09-10T22:51:43.336Z,96.90
2022-09-10T22:54:11.299Z,97.00
2022-09-10T22:56:38.372Z,97.00
2022-09-10T22:59:06.571Z,97.10
2022-09-10T23:01:37.558Z,97.10
2022-09-10T23:04:06.327Z,97.20
2022-09-10T23:06:35.479Z,97.20
2022-09-10T23:09:11.088Z,97.30
2022-09-10T23:11:39.196Z,97.20
2022-09-10T23:14:10.785Z,97.20
2022-09-10T23:16:41.901Z,97.30
2022-09-10T23:19:15.653Z,97.30
2022-09-10T23:21:46.483Z,97.30
2022-09-10T23:24:17.166Z,97.40
2022-09-10T23:26:44.782Z,97.40
2022-09-10T23:29:12.523Z,97.40
2022-09-10T23:31:40.935Z,97.30
2022-09-10T23:34:12.995Z,97.40
2022-09-10T23:36:42.822Z,97.30
2022-09-10T23:39:14.823Z,97.30
2022-09-10T23:41:42.202Z,97.40
2022-09-10T23:44:09.855Z,97.30
2022-09-10T23:46:37.567Z,97.30
2022-09-10T23:49:05.523Z,97.30
2022-09-10T23:51:32.383Z,97.20
2022-09-10T23:53:59.569Z,97.20
2022-09-10T23:56:28.331Z,97.20
2022-09-10T23:58:56.416Z,97.20
